Hildegaard — C6QU3 — position and weather

sailwx.info

Track history (hours):
 
Tides and Currents Weather Stations Pressure Air Temp Water Temp Dewpoint Dewpoint Depression Visibility Wind Speed Wind Dir Waves Ship Positions

Hildegaard

Last reported at 2015-Mar-06 04:09 UTC. Time now 2015-Mar-06 06:00 UTC.
Position N 52°09' E 003°37'.

Length 248 m; draft 11.9 m.

Type: Ship (hazmat cat A). MMSI: 308574000.

Date/timePositionNaut miles runAvg speedWind from/ knotsBaromVisibWave heightAir tempDewpointWater temp
2015-Mar-06 04:09N 52°09' E 003°37'0 0.0
2015-Mar-06 03:15N 52°09' E 003°37'0 0.0
2015-Mar-06 00:24N 52°09' E 003°37'0 0.0
2015-Mar-05 19:15N 52°09' E 003°37'0 0.1
2015-Mar-05 17:27N 52°09' E 003°37'0 0.0
2015-Mar-05 16:30N 52°09' E 003°37'0 0.0
2015-Mar-05 12:30N 52°09' E 003°37'0 0.0
2015-Mar-05 04:15N 52°09' E 003°37'0 0.0
2015-Mar-03 23:33N 52°09' E 003°37'0 0.0
2015-Mar-03 20:21N 52°09' E 003°37'0 0.0
2015-Mar-03 08:24N 52°09' E 003°37'0 0.2
2015-Mar-03 07:31N 52°09' E 003°36'7 7.4
2015-Mar-03 06:32N 52°05' E 003°46'10 9.8
2015-Mar-03 05:33N 52°00' E 004°00'6 6.1
2015-Mar-03 04:32N 51°57' E 004°09'0 0.0
2015-Mar-03 03:23N 51°57' E 004°09'0 0.0
2015-Mar-03 02:29N 51°57' E 004°09'0 0.0
2015-Mar-03 01:20N 51°57' E 004°09'0 0.0
2015-Mar-03 00:17N 51°57' E 004°09'0 0.0
2015-Mar-02 23:29N 51°57' E 004°09'0 0.0
2015-Mar-02 22:32N 51°57' E 004°09'0 0.0
2015-Mar-02 21:32N 51°57' E 004°09'0 0.0
2015-Mar-02 20:29N 51°57' E 004°09'0 0.0
2015-Mar-02 19:32N 51°57' E 004°09'0 0.0
2015-Mar-02 18:32N 51°57' E 004°09'0 0.0
2015-Mar-02 17:32N 51°57' E 004°09'0 0.0
2015-Mar-02 16:26N 51°57' E 004°09'0 0.0
2015-Mar-02 15:32N 51°57' E 004°09'0 0.0
2015-Mar-02 14:29N 51°57' E 004°09'0 0.0
2015-Mar-02 13:32N 51°57' E 004°09'0 0.0
2015-Mar-02 12:32N 51°57' E 004°09'0 0.0
2015-Mar-02 11:32N 51°57' E 004°09'0 0.0
2015-Mar-02 10:29N 51°57' E 004°09'0 0.0
2015-Mar-02 09:32N 51°57' E 004°09'0 0.0
2015-Mar-02 08:32N 51°57' E 004°09'0 0.0
2015-Mar-02 07:29N 51°57' E 004°09'0 0.0
2015-Mar-02 06:32N 51°57' E 004°09'0 0.0
2015-Mar-02 05:26N 51°57' E 004°09'0 0.0
2015-Mar-02 04:26N 51°57' E 004°09'0 0.0
2015-Mar-02 03:32N 51°57' E 004°09'0 0.0
2015-Mar-02 02:32N 51°57' E 004°09'0 0.0
2015-Mar-02 01:32N 51°57' E 004°09'0 0.0
2015-Mar-02 00:32N 51°57' E 004°09'0 0.0
2015-Mar-01 23:32N 51°57' E 004°09'0 0.0
2015-Mar-01 22:29N 51°57' E 004°09'0 0.0
2015-Mar-01 21:32N 51°57' E 004°09'0 0.2
2015-Mar-01 20:34N 51°57' E 004°09'7 6.9
2015-Mar-01 19:34N 51°60' E 003°58'7 7.5
2015-Mar-01 18:33N 52°00' E 003°46'2210.8
2015-Mar-01 16:34N 51°54' E 003°13'  
2015-Feb-26 20:26N 56°03' W 002°57'0 0.0
2015-Feb-26 19:32N 56°03' W 002°57'0 0.0
2015-Feb-26 18:32N 56°03' W 002°57'0 0.0
2015-Feb-26 17:32N 56°03' W 002°57'0 0.1
2015-Feb-26 16:32N 56°03' W 002°57'0 0.0
2015-Feb-26 15:32N 56°03' W 002°57'0 0.0
2015-Feb-26 14:32N 56°03' W 002°57'0 0.1
2015-Feb-26 13:23N 56°03' W 002°57'0 0.0
2015-Feb-26 12:26N 56°03' W 002°57'0 0.0
2015-Feb-26 11:26N 56°03' W 002°57'0 0.0
2015-Feb-26 10:26N 56°03' W 002°57'0 0.0
2015-Feb-26 09:29N 56°03' W 002°57'0 0.0
2015-Feb-26 08:29N 56°03' W 002°57'0 0.1
2015-Feb-26 07:26N 56°03' W 002°57'0 0.0
2015-Feb-26 06:32N 56°03' W 002°57'0 0.1
2015-Feb-26 05:32N 56°03' W 002°57'0 0.0
2015-Feb-26 04:32N 56°03' W 002°57'0 0.0
2015-Feb-26 03:32N 56°03' W 002°57'0 0.0
2015-Feb-26 02:32N 56°03' W 002°57'0 0.0
2015-Feb-26 01:32N 56°03' W 002°57'0 0.0
2015-Feb-26 00:32N 56°03' W 002°57'0 0.0
2015-Feb-25 23:23N 56°03' W 002°57'0 0.0
2015-Feb-25 22:26N 56°03' W 002°57'0 0.0
2015-Feb-25 21:26N 56°03' W 002°57'0 0.0
2015-Feb-25 20:26N 56°03' W 002°57'0 0.0
2015-Feb-25 19:29N 56°03' W 002°57'0 0.1
2015-Feb-25 18:29N 56°03' W 002°57'0 0.0
2015-Feb-25 17:26N 56°03' W 002°57'0 0.1
2015-Feb-25 16:32N 56°03' W 002°57'0 0.0
2015-Feb-25 15:33N 56°03' W 002°57'0 0.2
2015-Feb-25 14:33N 56°03' W 002°57'0 0.1
2015-Feb-25 13:33N 56°03' W 002°57'0 0.0
2015-Feb-25 12:33N 56°03' W 002°57'0 0.0
2015-Feb-25 11:33N 56°03' W 002°57'0 0.0
2015-Feb-25 10:33N 56°03' W 002°57'0 0.0
2015-Feb-25 09:33N 56°03' W 002°57'0 0.0
2015-Feb-25 08:33N 56°03' W 002°57'0 0.0
2015-Feb-25 07:33N 56°03' W 002°57'0 0.0
2015-Feb-25 06:33N 56°03' W 002°57'0 0.0
2015-Feb-25 05:33N 56°03' W 002°57'0 0.4
2015-Feb-25 04:33N 56°03' W 002°56'5 5.3
2015-Feb-25 03:33N 56°06' W 002°48'6 5.5
2015-Feb-25 02:33N 56°08' W 002°39'5 4.9
2015-Feb-25 01:33N 56°07' W 002°30'6 5.6
2015-Feb-25 00:33N 56°05' W 002°21'5 5.0
2015-Feb-24 23:33N 56°03' W 002°12'4 4.3
2015-Feb-24 22:33N 56°01' W 002°05'4 3.6
2015-Feb-24 21:33N 56°00' W 001°59'3 3.2
2015-Feb-24 20:33N 55°59' W 001°54'3 3.2
2015-Feb-24 19:33N 55°57' W 001°49'5 5.2
2015-Feb-24 18:33N 55°55' W 001°40'  
Track history (hours):
 
Tides and Currents Weather Stations Pressure Air Temp Water Temp Dewpoint Dewpoint Depression Visibility Wind Speed Wind Dir Waves Ship Positions

Hildegaard

Last reported at 2015-Mar-06 04:09 UTC. Time now 2015-Mar-06 06:00 UTC.
Position N 52°09' E 003°37'.

Length 248 m; draft 11.9 m.

Type: Ship (hazmat cat A). MMSI: 308574000.

Date/timePositionNaut miles runAvg speedWind from/ knotsBaromVisibWave heightAir tempDewpointWater temp
2015-Mar-06 04:09N 52°09' E 003°37'0 0.0
2015-Mar-06 03:15N 52°09' E 003°37'0 0.0
2015-Mar-06 00:24N 52°09' E 003°37'0 0.0
2015-Mar-05 19:15N 52°09' E 003°37'0 0.1
2015-Mar-05 17:27N 52°09' E 003°37'0 0.0
2015-Mar-05 16:30N 52°09' E 003°37'0 0.0
2015-Mar-05 12:30N 52°09' E 003°37'0 0.0
2015-Mar-05 04:15N 52°09' E 003°37'0 0.0
2015-Mar-03 23:33N 52°09' E 003°37'0 0.0
2015-Mar-03 20:21N 52°09' E 003°37'0 0.0
2015-Mar-03 08:24N 52°09' E 003°37'0 0.2
2015-Mar-03 07:31N 52°09' E 003°36'7 7.4
2015-Mar-03 06:32N 52°05' E 003°46'10 9.8
2015-Mar-03 05:33N 52°00' E 004°00'6 6.1
2015-Mar-03 04:32N 51°57' E 004°09'0 0.0
2015-Mar-03 03:23N 51°57' E 004°09'0 0.0
2015-Mar-03 02:29N 51°57' E 004°09'0 0.0
2015-Mar-03 01:20N 51°57' E 004°09'0 0.0
2015-Mar-03 00:17N 51°57' E 004°09'0 0.0
2015-Mar-02 23:29N 51°57' E 004°09'0 0.0
2015-Mar-02 22:32N 51°57' E 004°09'0 0.0
2015-Mar-02 21:32N 51°57' E 004°09'0 0.0
2015-Mar-02 20:29N 51°57' E 004°09'0 0.0
2015-Mar-02 19:32N 51°57' E 004°09'0 0.0
2015-Mar-02 18:32N 51°57' E 004°09'0 0.0
2015-Mar-02 17:32N 51°57' E 004°09'0 0.0
2015-Mar-02 16:26N 51°57' E 004°09'0 0.0
2015-Mar-02 15:32N 51°57' E 004°09'0 0.0
2015-Mar-02 14:29N 51°57' E 004°09'0 0.0
2015-Mar-02 13:32N 51°57' E 004°09'0 0.0
2015-Mar-02 12:32N 51°57' E 004°09'0 0.0
2015-Mar-02 11:32N 51°57' E 004°09'0 0.0
2015-Mar-02 10:29N 51°57' E 004°09'0 0.0
2015-Mar-02 09:32N 51°57' E 004°09'0 0.0
2015-Mar-02 08:32N 51°57' E 004°09'0 0.0
2015-Mar-02 07:29N 51°57' E 004°09'0 0.0
2015-Mar-02 06:32N 51°57' E 004°09'0 0.0
2015-Mar-02 05:26N 51°57' E 004°09'0 0.0
2015-Mar-02 04:26N 51°57' E 004°09'0 0.0
2015-Mar-02 03:32N 51°57' E 004°09'0 0.0
2015-Mar-02 02:32N 51°57' E 004°09'0 0.0
2015-Mar-02 01:32N 51°57' E 004°09'0 0.0
2015-Mar-02 00:32N 51°57' E 004°09'0 0.0
2015-Mar-01 23:32N 51°57' E 004°09'0 0.0
2015-Mar-01 22:29N 51°57' E 004°09'0 0.0
2015-Mar-01 21:32N 51°57' E 004°09'0 0.2
2015-Mar-01 20:34N 51°57' E 004°09'7 6.9
2015-Mar-01 19:34N 51°60' E 003°58'7 7.5
2015-Mar-01 18:33N 52°00' E 003°46'2210.8
2015-Mar-01 16:34N 51°54' E 003°13'  
2015-Feb-26 20:26N 56°03' W 002°57'0 0.0
2015-Feb-26 19:32N 56°03' W 002°57'0 0.0
2015-Feb-26 18:32N 56°03' W 002°57'0 0.0
2015-Feb-26 17:32N 56°03' W 002°57'0 0.1
2015-Feb-26 16:32N 56°03' W 002°57'0 0.0
2015-Feb-26 15:32N 56°03' W 002°57'0 0.0
2015-Feb-26 14:32N 56°03' W 002°57'0 0.1
2015-Feb-26 13:23N 56°03' W 002°57'0 0.0
2015-Feb-26 12:26N 56°03' W 002°57'0 0.0
2015-Feb-26 11:26N 56°03' W 002°57'0 0.0
2015-Feb-26 10:26N 56°03' W 002°57'0 0.0
2015-Feb-26 09:29N 56°03' W 002°57'0 0.0
2015-Feb-26 08:29N 56°03' W 002°57'0 0.1
2015-Feb-26 07:26N 56°03' W 002°57'0 0.0
2015-Feb-26 06:32N 56°03' W 002°57'0 0.1
2015-Feb-26 05:32N 56°03' W 002°57'0 0.0
2015-Feb-26 04:32N 56°03' W 002°57'0 0.0
2015-Feb-26 03:32N 56°03' W 002°57'0 0.0
2015-Feb-26 02:32N 56°03' W 002°57'0 0.0
2015-Feb-26 01:32N 56°03' W 002°57'0 0.0
2015-Feb-26 00:32N 56°03' W 002°57'0 0.0
2015-Feb-25 23:23N 56°03' W 002°57'0 0.0
2015-Feb-25 22:26N 56°03' W 002°57'0 0.0
2015-Feb-25 21:26N 56°03' W 002°57'0 0.0
2015-Feb-25 20:26N 56°03' W 002°57'0 0.0
2015-Feb-25 19:29N 56°03' W 002°57'0 0.1
2015-Feb-25 18:29N 56°03' W 002°57'0 0.0
2015-Feb-25 17:26N 56°03' W 002°57'0 0.1
2015-Feb-25 16:32N 56°03' W 002°57'0 0.0
2015-Feb-25 15:33N 56°03' W 002°57'0 0.2
2015-Feb-25 14:33N 56°03' W 002°57'0 0.1
2015-Feb-25 13:33N 56°03' W 002°57'0 0.0
2015-Feb-25 12:33N 56°03' W 002°57'0 0.0
2015-Feb-25 11:33N 56°03' W 002°57'0 0.0
2015-Feb-25 10:33N 56°03' W 002°57'0 0.0
2015-Feb-25 09:33N 56°03' W 002°57'0 0.0
2015-Feb-25 08:33N 56°03' W 002°57'0 0.0
2015-Feb-25 07:33N 56°03' W 002°57'0 0.0
2015-Feb-25 06:33N 56°03' W 002°57'0 0.0
2015-Feb-25 05:33N 56°03' W 002°57'0 0.4
2015-Feb-25 04:33N 56°03' W 002°56'5 5.3
2015-Feb-25 03:33N 56°06' W 002°48'6 5.5
2015-Feb-25 02:33N 56°08' W 002°39'5 4.9
2015-Feb-25 01:33N 56°07' W 002°30'6 5.6
2015-Feb-25 00:33N 56°05' W 002°21'5 5.0
2015-Feb-24 23:33N 56°03' W 002°12'4 4.3
2015-Feb-24 22:33N 56°01' W 002°05'4 3.6
2015-Feb-24 21:33N 56°00' W 001°59'3 3.2
2015-Feb-24 20:33N 55°59' W 001°54'3 3.2
2015-Feb-24 19:33N 55°57' W 001°49'5 5.2
2015-Feb-24 18:33N 55°55' W 001°40'  

Dump ship's entire track history